This is the latest recevied weather packets stored in our database for station/object DD6UBW. If no packets are shown the sender has not sent any weather packets the latest 10 day(s).
| Time | Temp. | Humidity | Pressure | Rain* | Wind** | Luminosity | Snow |
|---|---|---|---|---|---|---|---|
| 1777172401 | 4.44° C | 75% | 1018.6 hPa | 0 mm | - | - | - |
| 1777170602 | 5° C | 74% | 1018.6 hPa | 0 mm | - | - | - |
| 1777168801 | 5.56° C | 72% | 1017.6 hPa | 0 mm | - | - | - |
| 1777167001 | 5.56° C | 71% | 1017.6 hPa | 0 mm | - | - | - |
| 1777165201 | 6.11° C | 70% | 1016.6 hPa | 0 mm | - | - | - |
| 1777163401 | 6.67° C | 68% | 1016.6 hPa | 0 mm | - | - | - |
| 1777161601 | 6.67° C | 67% | 1016.6 hPa | 0 mm | - | - | - |
| 1777159802 | 7.22° C | 69% | 1015.6 hPa | 0 mm | - | - | - |
| 1777156202 | 7.78° C | 66% | 1014.6 hPa | 0 mm | - | - | - |
| 1777154401 | 8.33° C | 65% | 1014.6 hPa | 0 mm | - | - | - |
| 1777152601 | 8.33° C | 63% | 1014.6 hPa | 0 mm | - | - | - |
| 1777150801 | 8.89° C | 63% | 1013.6 hPa | 0 mm | - | - | - |
| 1777149001 | 8.89° C | 62% | 1013.6 hPa | 0 mm | - | - | - |
| 1777147202 | 8.89° C | 63% | 1013.6 hPa | 0 mm | - | - | - |
| 1777145401 | 10° C | 62% | 1012.6 hPa | 0 mm | - | - | - |
| 1777143601 | 10.56° C | 61% | 1011.6 hPa | 0 mm | - | - | - |
| 1777141801 | 11.67° C | 60% | 1011.6 hPa | 0 mm | - | - | - |
| 1777140001 | 13.33° C | 55% | 1010.6 hPa | 0 mm | - | - | - |
| 1777138201 | 15° C | 50% | 1010.6 hPa | 0 mm | - | - | - |
| 1777136402 | 15.56° C | 47% | 1010.6 hPa | 0 mm | - | - | - |
| 1777132801 | 16.67° C | 46% | 1010.6 hPa | 0 mm | - | - | - |
| 1777131001 | 17.22° C | 46% | 1010.6 hPa | 0 mm | - | - | - |
| 1777129201 | 17.22° C | 46% | 1010.6 hPa | 0 mm | - | - | - |
| 1777127402 | 17.22° C | 46% | 1011.6 hPa | 0 mm | - | - | - |
| 1777125602 | 17.22° C | 47% | 1011.6 hPa | 0 mm | - | - | - |
* Rain since midnight (hover to see other rain measurements)
** Current wind speed in m/s (hover to see current wind gust speed)